Planet Ace — 3EYF9 — position and weather

sailwx.info

Track history (hours):
 
Tides and Currents Weather Stations Pressure Air Temp Water Temp Dewpoint Dewpoint Depression Visibility Wind Speed Wind Dir Waves Ship Positions

Planet Ace

Last reported at 2017-Mar-23 11:33 UTC. Time now 2017-Mar-23 12:31 UTC.
Position N 52°25' E 004°49'.

Length 188 m; beam 28.2 m.

Type: Cargo ship. MMSI: 352168000.

Date/timePositionNaut miles runAvg speedWind from/ knotsBaromVisibWave heightAir tempDewpointWater temp
2017-Mar-23 11:33N 52°25' E 004°49'7 7.1
2017-Mar-23 10:34N 52°28' E 004°39'2 1.6
2017-Mar-23 09:34N 52°28' E 004°36'7 7.3
2017-Mar-23 08:33N 52°29' E 004°24'1110.6
2017-Mar-23 07:33N 52°32' E 004°07'1515.0
2017-Mar-23 06:33N 52°44' E 003°54'1616.1
2017-Mar-23 05:33N 52°57' E 003°37'12715.7
2017-Mar-22 21:26N 54°15' E 000°47'1315.0
2017-Mar-22 20:33N 54°22' E 000°28'1514.6
2017-Mar-22 19:33N 54°30' E 000°06'1514.5
2017-Mar-22 18:33N 54°38' W 000°15'3114.6
2017-Mar-22 16:26N 54°54' W 001°01'1214.2
2017-Mar-22 15:33N 55°00' W 001°19'5 1.5
2017-Mar-22 12:15N 54°59' W 001°28'0 0.0
2017-Mar-22 11:33N 54°59' W 001°28'0 0.0
2017-Mar-22 10:33N 54°59' W 001°28'0 0.0
2017-Mar-22 09:32N 54°59' W 001°28'0 0.0
2017-Mar-22 08:32N 54°59' W 001°28'0 0.0
2017-Mar-22 07:32N 54°59' W 001°28'0 0.0
2017-Mar-22 06:32N 54°59' W 001°28'0 0.0
2017-Mar-22 05:32N 54°59' W 001°28'0 0.0
2017-Mar-22 04:32N 54°59' W 001°28'0 0.0
2017-Mar-22 03:32N 54°59' W 001°28'0 0.0
2017-Mar-22 02:32N 54°59' W 001°28'0 0.0
2017-Mar-22 01:32N 54°59' W 001°28'0 0.0
2017-Mar-22 00:32N 54°59' W 001°28'0 0.0
2017-Mar-21 23:32N 54°59' W 001°28'0 0.0
2017-Mar-21 22:32N 54°59' W 001°28'0 0.0
2017-Mar-21 21:32N 54°59' W 001°28'0 0.0
2017-Mar-21 20:32N 54°59' W 001°28'0 0.0
2017-Mar-21 19:32N 54°59' W 001°28'0 0.2
2017-Mar-21 18:29N 54°59' W 001°28'0 0.2
2017-Mar-21 17:29N 54°59' W 001°28'0 0.0
2017-Mar-21 16:32N 54°59' W 001°28'0 0.0
2017-Mar-21 14:32N 54°59' W 001°28'0 0.0
2017-Mar-21 13:32N 54°59' W 001°28'0 0.0
2017-Mar-21 12:29N 54°59' W 001°28'0 0.0
2017-Mar-21 11:14N 54°59' W 001°28'0 0.0
2017-Mar-21 10:32N 54°59' W 001°28'0 0.0
2017-Mar-21 09:32N 54°59' W 001°28'0 0.0
2017-Mar-21 08:32N 54°59' W 001°28'0 0.0
2017-Mar-21 07:32N 54°59' W 001°28'0 0.0
2017-Mar-21 06:29N 54°59' W 001°28'0 0.0
2017-Mar-21 05:32N 54°59' W 001°28'0 0.0
2017-Mar-21 04:32N 54°59' W 001°28'0 0.0
2017-Mar-21 03:32N 54°59' W 001°28'0 0.0
2017-Mar-21 02:32N 54°59' W 001°28'0 0.0
2017-Mar-21 01:32N 54°59' W 001°28'0 0.0
2017-Mar-21 00:32N 54°59' W 001°28'0 0.1
2017-Mar-20 23:33N 54°59' W 001°28'6 5.7
2017-Mar-20 22:33N 55°01' W 001°18'3715.1
2017-Mar-20 20:04N 54°35' W 000°32'815.6
2017-Mar-20 19:33N 54°30' W 000°22'1615.7
2017-Mar-20 18:33N 54°17' W 000°05'1615.8
2017-Mar-20 17:33N 54°05' E 000°12'5316.7
2017-Mar-20 14:21N 53°23' E 001°07'1315.7
2017-Mar-20 13:33N 53°12' E 001°18'1615.4
2017-Mar-20 12:33N 52°59' E 001°32'1515.1
2017-Mar-20 11:33N 52°49' E 001°50'1515.0
2017-Mar-20 10:33N 52°37' E 002°04'6516.3
2017-Mar-20 06:33N 51°36' E 002°43'1414.2
2017-Mar-20 05:33N 51°22' E 002°46'10 9.6
2017-Mar-20 04:33N 51°24' E 003°01'8 8.0
2017-Mar-20 03:33N 51°21' E 003°13'1 1.1
2017-Mar-20 02:33N 51°20' E 003°13'0 0.4
2017-Mar-20 01:33N 51°19' E 003°13'0 0.0
2017-Mar-20 00:33N 51°19' E 003°13'0 0.0
2017-Mar-19 23:32N 51°19' E 003°13'0 0.0
2017-Mar-19 22:32N 51°19' E 003°13'0 0.0
2017-Mar-19 21:33N 51°19' E 003°13'0 0.0
2017-Mar-19 20:32N 51°19' E 003°13'0 0.0
2017-Mar-19 19:32N 51°19' E 003°13'0 0.0
2017-Mar-19 18:32N 51°19' E 003°13'0 0.0
2017-Mar-19 17:32N 51°19' E 003°13'0 0.0
2017-Mar-19 16:32N 51°19' E 003°13'2 1.6
2017-Mar-19 15:31N 51°18' E 003°14'0 0.0
2017-Mar-19 14:31N 51°18' E 003°14'0 0.0
2017-Mar-19 13:31N 51°18' E 003°14'0 0.0
2017-Mar-19 12:31N 51°18' E 003°14'0 0.0
2017-Mar-19 11:31N 51°18' E 003°14'0 0.0
2017-Mar-19 10:31N 51°18' E 003°14'0 0.0
2017-Mar-19 09:31N 51°18' E 003°14'0 0.0
2017-Mar-19 08:31N 51°18' E 003°14'0 0.0
2017-Mar-19 07:31N 51°18' E 003°14'0 0.0
2017-Mar-19 06:31N 51°18' E 003°14'0 0.0
2017-Mar-19 05:31N 51°18' E 003°14'0 0.0
2017-Mar-19 04:31N 51°18' E 003°14'0 0.0
2017-Mar-19 03:28N 51°18' E 003°14'0 0.0
2017-Mar-19 02:31N 51°18' E 003°14'0 0.0
2017-Mar-19 01:31N 51°18' E 003°14'0 0.0
2017-Mar-19 00:31N 51°18' E 003°14'0 0.0
2017-Mar-18 23:31N 51°18' E 003°14'0 0.0
2017-Mar-18 22:31N 51°18' E 003°14'0 0.0
2017-Mar-18 21:31N 51°18' E 003°14'0 0.0
2017-Mar-18 20:32N 51°18' E 003°14'0 0.0
2017-Mar-18 19:31N 51°18' E 003°14'0 0.0
2017-Mar-18 18:31N 51°18' E 003°14'0 0.0
2017-Mar-18 17:31N 51°18' E 003°14'0 0.3
2017-Mar-18 16:33N 51°18' E 003°14'2 1.8
2017-Mar-18 15:33N 51°20' E 003°13'5 4.5
2017-Mar-18 14:33N 51°24' E 003°09'9 9.4
2017-Mar-18 13:33N 51°22' E 002°54'1010.4
2017-Mar-18 12:33N 51°22' E 002°37'9 8.8
2017-Mar-18 11:34N 51°20' E 002°23'5 5.3
2017-Mar-18 10:33N 51°17' E 002°17'4 4.4
2017-Mar-18 09:33N 51°14' E 002°11'5 5.0
2017-Mar-18 08:33N 51°12' E 002°04'7 7.4
2017-Mar-18 07:33N 51°09' E 001°53'1414.1
2017-Mar-18 06:34N 50°59' E 001°36'7815.5
2017-Mar-18 01:34N 49°59' E 000°19'1717.1
2017-Mar-18 00:34N 49°45' E 000°04'1515.4
2017-Mar-17 23:34N 49°30' E 000°02'5 5.4
2017-Mar-17 22:33N 49°29' E 000°10'1 0.7
2017-Mar-17 21:33N 49°28' E 000°11'0 0.0
2017-Mar-17 20:33N 49°28' E 000°11'0 0.0
2017-Mar-17 19:33N 49°28' E 000°11'0 0.0
2017-Mar-17 18:33N 49°28' E 000°11'0 0.0
2017-Mar-17 17:33N 49°28' E 000°11'0 0.0
2017-Mar-17 16:33N 49°28' E 000°11'0 0.0
2017-Mar-17 15:33N 49°28' E 000°11'0 0.0
2017-Mar-17 14:33N 49°28' E 000°11'0 0.0
2017-Mar-17 13:33N 49°28' E 000°11'0 0.0
2017-Mar-17 12:33N 49°28' E 000°11'0 0.0
2017-Mar-17 11:33N 49°28' E 000°11'0 0.0
2017-Mar-17 10:32N 49°28' E 000°11'0 0.0
2017-Mar-17 09:32N 49°28' E 000°11'0 0.0
2017-Mar-17 08:32N 49°28' E 000°11'0 0.0
2017-Mar-17 07:32N 49°28' E 000°11'0 0.0
2017-Mar-17 06:32N 49°28' E 000°11'0 0.0
2017-Mar-17 05:32N 49°28' E 000°11'0 0.0
2017-Mar-17 04:32N 49°28' E 000°11'0 0.0
2017-Mar-17 03:32N 49°28' E 000°11'0 0.0
2017-Mar-17 02:32N 49°28' E 000°11'0 0.0
2017-Mar-17 01:32N 49°28' E 000°11'0 0.0
2017-Mar-17 00:32N 49°28' E 000°11'0 0.0
2017-Mar-16 23:32N 49°28' E 000°11'0 0.0
2017-Mar-16 22:32N 49°28' E 000°11'0 0.0
2017-Mar-16 21:32N 49°28' E 000°11'0 0.0
2017-Mar-16 20:32N 49°28' E 000°11'0 0.0
2017-Mar-16 19:32N 49°28' E 000°11'0 0.0
2017-Mar-16 18:32N 49°28' E 000°11'0 0.0
2017-Mar-16 17:32N 49°28' E 000°11'0 0.0
2017-Mar-16 16:32N 49°28' E 000°11'0 0.0
2017-Mar-16 15:32N 49°28' E 000°11'0 0.0
2017-Mar-16 14:32N 49°28' E 000°11'0 0.0
2017-Mar-16 13:32N 49°28' E 000°11'1 0.6
2017-Mar-16 12:33N 49°29' E 000°10'6 5.9
2017-Mar-16 11:33N 49°30' E 000°01'10 9.5
2017-Mar-16 10:33N 49°33' W 000°13'9 8.8
2017-Mar-16 09:33N 49°36' W 000°25'1110.7
2017-Mar-16 08:33N 49°40' W 000°40'6 6.0
2017-Mar-16 07:33N 49°43' W 000°49'1313.1
2017-Mar-16 06:34N 49°47' W 001°08'1414.3
2017-Mar-16 05:33N 49°51' W 001°29'1313.0
2017-Mar-16 04:33N 49°53' W 001°49'1212.3
2017-Mar-16 03:33N 49°53' W 002°08'1513.3
2017-Mar-16 02:26N 49°51' W 002°31'1314.7
2017-Mar-16 01:33N 49°48' W 002°51'1515.3
2017-Mar-16 00:33N 49°41' W 003°11'1515.5
2017-Mar-15 23:33N 49°33' W 003°32'1615.7
2017-Mar-15 22:33N 49°25' W 003°53'1616.0
2017-Mar-15 21:33N 49°17' W 004°14'1616.5
2017-Mar-15 20:33N 49°08' W 004°35'1717.1
2017-Mar-15 19:33N 48°60' W 004°58'1817.6
2017-Mar-15 18:33N 48°51' W 005°21'1717.0
2017-Mar-15 17:33N 48°39' W 005°40'1817.8
2017-Mar-15 16:33N 48°23' W 005°53'55614.6
2017-Mar-14 02:33N 39°34' W 009°51'1313.7
2017-Mar-14 01:33N 39°21' W 009°51'1313.5
2017-Mar-14 00:33N 39°07' W 009°51'1313.4
2017-Mar-13 23:33N 38°54' W 009°51'1313.4
2017-Mar-13 22:33N 38°41' W 009°50'1313.1
2017-Mar-13 21:33N 38°28' W 009°45'1312.8
2017-Mar-13 20:33N 38°16' W 009°42'1313.0
2017-Mar-13 19:33N 38°03' W 009°38'  
Track history (hours):
 
Tides and Currents Weather Stations Pressure Air Temp Water Temp Dewpoint Dewpoint Depression Visibility Wind Speed Wind Dir Waves Ship Positions

Planet Ace

Last reported at 2017-Mar-23 11:33 UTC. Time now 2017-Mar-23 12:31 UTC.
Position N 52°25' E 004°49'.

Length 188 m; beam 28.2 m.

Type: Cargo ship. MMSI: 352168000.

Date/timePositionNaut miles runAvg speedWind from/ knotsBaromVisibWave heightAir tempDewpointWater temp
2017-Mar-23 11:33N 52°25' E 004°49'7 7.1
2017-Mar-23 10:34N 52°28' E 004°39'2 1.6
2017-Mar-23 09:34N 52°28' E 004°36'7 7.3
2017-Mar-23 08:33N 52°29' E 004°24'1110.6
2017-Mar-23 07:33N 52°32' E 004°07'1515.0
2017-Mar-23 06:33N 52°44' E 003°54'1616.1
2017-Mar-23 05:33N 52°57' E 003°37'12715.7
2017-Mar-22 21:26N 54°15' E 000°47'1315.0
2017-Mar-22 20:33N 54°22' E 000°28'1514.6
2017-Mar-22 19:33N 54°30' E 000°06'1514.5
2017-Mar-22 18:33N 54°38' W 000°15'3114.6
2017-Mar-22 16:26N 54°54' W 001°01'1214.2
2017-Mar-22 15:33N 55°00' W 001°19'5 1.5
2017-Mar-22 12:15N 54°59' W 001°28'0 0.0
2017-Mar-22 11:33N 54°59' W 001°28'0 0.0
2017-Mar-22 10:33N 54°59' W 001°28'0 0.0
2017-Mar-22 09:32N 54°59' W 001°28'0 0.0
2017-Mar-22 08:32N 54°59' W 001°28'0 0.0
2017-Mar-22 07:32N 54°59' W 001°28'0 0.0
2017-Mar-22 06:32N 54°59' W 001°28'0 0.0
2017-Mar-22 05:32N 54°59' W 001°28'0 0.0
2017-Mar-22 04:32N 54°59' W 001°28'0 0.0
2017-Mar-22 03:32N 54°59' W 001°28'0 0.0
2017-Mar-22 02:32N 54°59' W 001°28'0 0.0
2017-Mar-22 01:32N 54°59' W 001°28'0 0.0
2017-Mar-22 00:32N 54°59' W 001°28'0 0.0
2017-Mar-21 23:32N 54°59' W 001°28'0 0.0
2017-Mar-21 22:32N 54°59' W 001°28'0 0.0
2017-Mar-21 21:32N 54°59' W 001°28'0 0.0
2017-Mar-21 20:32N 54°59' W 001°28'0 0.0
2017-Mar-21 19:32N 54°59' W 001°28'0 0.2
2017-Mar-21 18:29N 54°59' W 001°28'0 0.2
2017-Mar-21 17:29N 54°59' W 001°28'0 0.0
2017-Mar-21 16:32N 54°59' W 001°28'0 0.0
2017-Mar-21 14:32N 54°59' W 001°28'0 0.0
2017-Mar-21 13:32N 54°59' W 001°28'0 0.0
2017-Mar-21 12:29N 54°59' W 001°28'0 0.0
2017-Mar-21 11:14N 54°59' W 001°28'0 0.0
2017-Mar-21 10:32N 54°59' W 001°28'0 0.0
2017-Mar-21 09:32N 54°59' W 001°28'0 0.0
2017-Mar-21 08:32N 54°59' W 001°28'0 0.0
2017-Mar-21 07:32N 54°59' W 001°28'0 0.0
2017-Mar-21 06:29N 54°59' W 001°28'0 0.0
2017-Mar-21 05:32N 54°59' W 001°28'0 0.0
2017-Mar-21 04:32N 54°59' W 001°28'0 0.0
2017-Mar-21 03:32N 54°59' W 001°28'0 0.0
2017-Mar-21 02:32N 54°59' W 001°28'0 0.0
2017-Mar-21 01:32N 54°59' W 001°28'0 0.0
2017-Mar-21 00:32N 54°59' W 001°28'0 0.1
2017-Mar-20 23:33N 54°59' W 001°28'6 5.7
2017-Mar-20 22:33N 55°01' W 001°18'3715.1
2017-Mar-20 20:04N 54°35' W 000°32'815.6
2017-Mar-20 19:33N 54°30' W 000°22'1615.7
2017-Mar-20 18:33N 54°17' W 000°05'1615.8
2017-Mar-20 17:33N 54°05' E 000°12'5316.7
2017-Mar-20 14:21N 53°23' E 001°07'1315.7
2017-Mar-20 13:33N 53°12' E 001°18'1615.4
2017-Mar-20 12:33N 52°59' E 001°32'1515.1
2017-Mar-20 11:33N 52°49' E 001°50'1515.0
2017-Mar-20 10:33N 52°37' E 002°04'6516.3
2017-Mar-20 06:33N 51°36' E 002°43'1414.2
2017-Mar-20 05:33N 51°22' E 002°46'10 9.6
2017-Mar-20 04:33N 51°24' E 003°01'8 8.0
2017-Mar-20 03:33N 51°21' E 003°13'1 1.1
2017-Mar-20 02:33N 51°20' E 003°13'0 0.4
2017-Mar-20 01:33N 51°19' E 003°13'0 0.0
2017-Mar-20 00:33N 51°19' E 003°13'0 0.0
2017-Mar-19 23:32N 51°19' E 003°13'0 0.0
2017-Mar-19 22:32N 51°19' E 003°13'0 0.0
2017-Mar-19 21:33N 51°19' E 003°13'0 0.0
2017-Mar-19 20:32N 51°19' E 003°13'0 0.0
2017-Mar-19 19:32N 51°19' E 003°13'0 0.0
2017-Mar-19 18:32N 51°19' E 003°13'0 0.0
2017-Mar-19 17:32N 51°19' E 003°13'0 0.0
2017-Mar-19 16:32N 51°19' E 003°13'2 1.6
2017-Mar-19 15:31N 51°18' E 003°14'0 0.0
2017-Mar-19 14:31N 51°18' E 003°14'0 0.0
2017-Mar-19 13:31N 51°18' E 003°14'0 0.0
2017-Mar-19 12:31N 51°18' E 003°14'0 0.0
2017-Mar-19 11:31N 51°18' E 003°14'0 0.0
2017-Mar-19 10:31N 51°18' E 003°14'0 0.0
2017-Mar-19 09:31N 51°18' E 003°14'0 0.0
2017-Mar-19 08:31N 51°18' E 003°14'0 0.0
2017-Mar-19 07:31N 51°18' E 003°14'0 0.0
2017-Mar-19 06:31N 51°18' E 003°14'0 0.0
2017-Mar-19 05:31N 51°18' E 003°14'0 0.0
2017-Mar-19 04:31N 51°18' E 003°14'0 0.0
2017-Mar-19 03:28N 51°18' E 003°14'0 0.0
2017-Mar-19 02:31N 51°18' E 003°14'0 0.0
2017-Mar-19 01:31N 51°18' E 003°14'0 0.0
2017-Mar-19 00:31N 51°18' E 003°14'0 0.0
2017-Mar-18 23:31N 51°18' E 003°14'0 0.0
2017-Mar-18 22:31N 51°18' E 003°14'0 0.0
2017-Mar-18 21:31N 51°18' E 003°14'0 0.0
2017-Mar-18 20:32N 51°18' E 003°14'0 0.0
2017-Mar-18 19:31N 51°18' E 003°14'0 0.0
2017-Mar-18 18:31N 51°18' E 003°14'0 0.0
2017-Mar-18 17:31N 51°18' E 003°14'0 0.3
2017-Mar-18 16:33N 51°18' E 003°14'2 1.8
2017-Mar-18 15:33N 51°20' E 003°13'5 4.5
2017-Mar-18 14:33N 51°24' E 003°09'9 9.4
2017-Mar-18 13:33N 51°22' E 002°54'1010.4
2017-Mar-18 12:33N 51°22' E 002°37'9 8.8
2017-Mar-18 11:34N 51°20' E 002°23'5 5.3
2017-Mar-18 10:33N 51°17' E 002°17'4 4.4
2017-Mar-18 09:33N 51°14' E 002°11'5 5.0
2017-Mar-18 08:33N 51°12' E 002°04'7 7.4
2017-Mar-18 07:33N 51°09' E 001°53'1414.1
2017-Mar-18 06:34N 50°59' E 001°36'7815.5
2017-Mar-18 01:34N 49°59' E 000°19'1717.1
2017-Mar-18 00:34N 49°45' E 000°04'1515.4
2017-Mar-17 23:34N 49°30' E 000°02'5 5.4
2017-Mar-17 22:33N 49°29' E 000°10'1 0.7
2017-Mar-17 21:33N 49°28' E 000°11'0 0.0
2017-Mar-17 20:33N 49°28' E 000°11'0 0.0
2017-Mar-17 19:33N 49°28' E 000°11'0 0.0
2017-Mar-17 18:33N 49°28' E 000°11'0 0.0
2017-Mar-17 17:33N 49°28' E 000°11'0 0.0
2017-Mar-17 16:33N 49°28' E 000°11'0 0.0
2017-Mar-17 15:33N 49°28' E 000°11'0 0.0
2017-Mar-17 14:33N 49°28' E 000°11'0 0.0
2017-Mar-17 13:33N 49°28' E 000°11'0 0.0
2017-Mar-17 12:33N 49°28' E 000°11'0 0.0
2017-Mar-17 11:33N 49°28' E 000°11'0 0.0
2017-Mar-17 10:32N 49°28' E 000°11'0 0.0
2017-Mar-17 09:32N 49°28' E 000°11'0 0.0
2017-Mar-17 08:32N 49°28' E 000°11'0 0.0
2017-Mar-17 07:32N 49°28' E 000°11'0 0.0
2017-Mar-17 06:32N 49°28' E 000°11'0 0.0
2017-Mar-17 05:32N 49°28' E 000°11'0 0.0
2017-Mar-17 04:32N 49°28' E 000°11'0 0.0
2017-Mar-17 03:32N 49°28' E 000°11'0 0.0
2017-Mar-17 02:32N 49°28' E 000°11'0 0.0
2017-Mar-17 01:32N 49°28' E 000°11'0 0.0
2017-Mar-17 00:32N 49°28' E 000°11'0 0.0
2017-Mar-16 23:32N 49°28' E 000°11'0 0.0
2017-Mar-16 22:32N 49°28' E 000°11'0 0.0
2017-Mar-16 21:32N 49°28' E 000°11'0 0.0
2017-Mar-16 20:32N 49°28' E 000°11'0 0.0
2017-Mar-16 19:32N 49°28' E 000°11'0 0.0
2017-Mar-16 18:32N 49°28' E 000°11'0 0.0
2017-Mar-16 17:32N 49°28' E 000°11'0 0.0
2017-Mar-16 16:32N 49°28' E 000°11'0 0.0
2017-Mar-16 15:32N 49°28' E 000°11'0 0.0
2017-Mar-16 14:32N 49°28' E 000°11'0 0.0
2017-Mar-16 13:32N 49°28' E 000°11'1 0.6
2017-Mar-16 12:33N 49°29' E 000°10'6 5.9
2017-Mar-16 11:33N 49°30' E 000°01'10 9.5
2017-Mar-16 10:33N 49°33' W 000°13'9 8.8
2017-Mar-16 09:33N 49°36' W 000°25'1110.7
2017-Mar-16 08:33N 49°40' W 000°40'6 6.0
2017-Mar-16 07:33N 49°43' W 000°49'1313.1
2017-Mar-16 06:34N 49°47' W 001°08'1414.3
2017-Mar-16 05:33N 49°51' W 001°29'1313.0
2017-Mar-16 04:33N 49°53' W 001°49'1212.3
2017-Mar-16 03:33N 49°53' W 002°08'1513.3
2017-Mar-16 02:26N 49°51' W 002°31'1314.7
2017-Mar-16 01:33N 49°48' W 002°51'1515.3
2017-Mar-16 00:33N 49°41' W 003°11'1515.5
2017-Mar-15 23:33N 49°33' W 003°32'1615.7
2017-Mar-15 22:33N 49°25' W 003°53'1616.0
2017-Mar-15 21:33N 49°17' W 004°14'1616.5
2017-Mar-15 20:33N 49°08' W 004°35'1717.1
2017-Mar-15 19:33N 48°60' W 004°58'1817.6
2017-Mar-15 18:33N 48°51' W 005°21'1717.0
2017-Mar-15 17:33N 48°39' W 005°40'1817.8
2017-Mar-15 16:33N 48°23' W 005°53'55614.6
2017-Mar-14 02:33N 39°34' W 009°51'1313.7
2017-Mar-14 01:33N 39°21' W 009°51'1313.5
2017-Mar-14 00:33N 39°07' W 009°51'1313.4
2017-Mar-13 23:33N 38°54' W 009°51'1313.4
2017-Mar-13 22:33N 38°41' W 009°50'1313.1
2017-Mar-13 21:33N 38°28' W 009°45'1312.8
2017-Mar-13 20:33N 38°16' W 009°42'1313.0
2017-Mar-13 19:33N 38°03' W 009°38'  

Dump ship's entire track history